SSEC Globe Logo

Space Science and Engineering Center

Surface Aviation Observations

KAIG 171155Z AUTO 10005KT 10SM OVC004 M07/M07 A3011 RMK AO2
     T10671071 11065 21067=
KC29 171155Z AUTO 09006KT 7SM OVC006 01/00 A3008 RMK AO1
     T00051005 10005 20000=
KBCK 171155Z AUTO 00000KT 10SM OVC010 M03/M05 A3010 RMK AO2
     T10301053 11029 21038=
KUBE 171155Z AUTO 00000KT 1 1/4SM BR OVC004 M05/M06 A3009
     RMK AO2=
KPVB 171155Z AUTO 07006KT 4SM OVC003 00/00 A3005 RMK AO1
     T00000000 10000 21005=
KEZS 171155Z AUTO 03006KT 10SM OVC015 M05/M07 A3016 RMK AO2
     T10511069 11047 21051=
KARV 171155Z AUTO 13004KT 7SM OVC004 M06/M07 A3010 RMK AO2
     T10571066 11057 21057=
KASX 171153Z AUTO 20003KT 10SM OVC015 M06/M08 A3013 RMK AO2
     SLP218 T10611083 11056 21061 58004=
KASX 171149Z AUTO 20003KT 10SM OVC015 M06/M08 A3013 RMK AO2=
KATW 171145Z 04005KT 10SM OVC010 M03/M06 A3012=
KAUW 171154Z AUTO 10005KT 10SM OVC009 M06/M07 A3010 RMK AO2
     SLP218 T10561067 11056 21061 50001 $=
KBUU 171150Z AUTO 07008KT 7SM OVC008 10/10 A3009 RMK AO2
     T01000100 10103 20097=
KCMY 171155Z AUTO 08005KT 10SM OVC008 M03/M04 A3010 RMK AO2
     T10301040 11027 21033=
KCWA 171147Z 08006KT 10SM OVC008 M06/M06 A3012=
KDLL 171155Z AUTO 06006KT 5SM BR OVC005 M03/M04 A3009 RMK
     AO2 T10301042 11023 21030=
KEAU 171156Z 08004KT 6SM BR OVC006 M04/M05 A3009 RMK AO2
     SLP204 T10391050 11039 21044 57005=
KEFT 171155Z AUTO 06007KT 4SM BR OVC005 00/00 A3005 RMK AO2=
KEGV 171155Z AUTO 14003KT 2 1/2SM BR OVC003 M08/M08 A3010
     RMK AO2 T10761077 11072 21076=
KENW 171153Z AUTO 07008KT 5SM BR OVC009 02/M01 A3009 RMK AO2
     SLP199 T00171006 10022 20006 50005=
KETB 171155Z AUTO 09006KT 10SM OVC007 M01/M01 A3011 RMK AO2=
KFLD 171153Z AUTO 10006KT 10SM OVC009 M01/M03 A3012 RMK AO2
     SLP210 T10061033 11006 21017 50004=
KGRB 171153Z 05008KT 10SM OVC012 M02/M04 A3016 RMK AO2
     SLP224 T10171044 11017 21033 51010=
KHYR 171153Z AUTO 00000KT 4SM BR OVC003 M06/M07 A3009 RMK
     AO2 SLP212 I6001 T10561067 11056 21061 58004=
KISW 171154Z AUTO 09004KT 10SM OVC012 M04/M07 A3012 RMK AO2
     SLP216 T10441067 11044 21044 58001=
KJVL 171155Z AUTO 08006KT 5SM BR OVC007 01/01 A3008 RMK AO2=
KLNL 171155Z AUTO 15004KT 10SM OVC004 M07/M08 A3012 RMK AO2
     T10751082 11070 21075=
KLNR 171156Z AUTO 06007KT 3SM BR OVC006 M01/M01 A3009 RMK
     AO2 SLP192 T10061011 10000 21006 56003=
KLSE 171153Z 09004KT 8SM OVC008 M01/M03 A3009 RMK AO2 SLP203
     T10111033 11011 21017 58002=
KLUM 171155Z AUTO 06003KT 7SM OVC008 M03/M05 A3009 RMK AO2
     T10351046 11035 21050=
KMDZ 171155Z AUTO 09003KT 10SM OVC007 M06/M07 A3008 RMK AO2
     T10571067 11056 21060=
KMFI 171154Z AUTO 10007KT 10SM OVC009 M05/M06 A3008 RMK AO2
     SLP209 T10501061 11050 21050 58003 TSNO=
KMKE 171152Z 08009KT 6SM BR OVC008 01/M01 A3011 RMK AO2
     SLP203 T00111006 10017 20011 53001=
KMRJ 171155Z AUTO 10008KT 3SM BR OVC003 00/00 A3005 RMK AO2=
KMSN 171153Z 08007KT 6SM BR OVC007 00/M02 A3009 RMK AO2
     SLP199 T00001017 10000 21011 56003=
KMTW 171156Z AUTO 08006KT 10SM OVC011 M01/M03 A3016 RMK AO2
     SLP235 6//// 7//// T10111028 11006 21017 53005 FZRANO=
KMWC 171155Z AUTO 08006KT 7SM OVC008 00/M02 A3012 RMK AO2=
KOEO 171155Z AUTO 00000KT 7SM OVC005 M05/M05 A3013 RMK AO2
     70001 T10521052 11052 21080=
KOSH 171153Z 06006KT 9SM OVC010 M02/M04 A3012 RMK AO2 SLP217
     T10221039 11017 21028 51003=
KOVS 171153Z AUTO 08004KT 7SM OVC008 00/M02 A3009 RMK AO2
     SLP197 T00001022 10000 20000 55003=
KPBH 171155Z AUTO 12003KT 10SM OVC005 M06/M06 A3010 RMK AO2
     T10601060 11060 21070=
KPCZ 171155Z AUTO 03004KT 10SM OVC011 M03/M05 A3014 RMK AO2
     T10301053 11029 21035=
KPDC 171155Z AUTO 07003KT 7SM OVC008 00/M03 A3008 RMK AO2
     T10051028 10000 21005=
KRAC 171153Z AUTO 07007KT 5SM BR OVC009 01/M01 A3011 RMK AO2
     SLP205 T00111006 10017 20006 50004=
KRCX 171155Z AUTO 11004KT 7SM OVC006 M04/M05 A3012 RMK AO2
     T10421053 11042 21048=
KRHI 171153Z AUTO 12006KT 5SM BR OVC003 M07/M07 A3011 RMK
     AO2 SLP225 I6000 T10671072 11061 21067 50003=
KRNH 171155Z AUTO 10003KT 4SM BR OVC004 M05/M05 A3010 RMK
     AO2 70001 T10481052 11048 21093=
KRPD 171155Z AUTO 00000KT 4SM BR OVC004 M05/M05 A3011 RMK
     AO2 T10461051 11046 21055=
KRRL 171155Z AUTO 12004KT 10SM OVC006 M05/M06 A3012 RMK AO2
     T10511058 11051 21060=
KRYV 171155Z AUTO 07007KT 10SM OVC009 00/00 A3009 RMK AO2
     T10031005 10000 21003=
KRZN 171155Z AUTO 00000KT 10SM OVC004 M08/M09 A3011 RMK AO2
     T10801088 11077 21100=
KSBM 171153Z AUTO 11007KT 9SM OVC009 M01/M02 A3013 RMK AO2
     SLP213 T10111022 11006 21011 53004 TSNO=
KSTE 171155Z AUTO 07004KT 10SM OVC011 M06/M06 A3013 RMK AO2
     T10561060 11056 21066=
KSUE 171156Z AUTO 08005KT 10SM OVC014 M02/M04 A3018 RMK AO2
     SLP248 6//// 7//// T10221044 11022 21028 53005 FZRANO=
KSUW 171155Z AUTO 00000KT 10SM OVC013 M06/M08 A3012 RMK AO2
     T10591085 11057 21061=
KTKV 171155Z AUTO 00000KT 5SM BR OVC004 M06/M07 A3011 RMK
     AO2 T10601067 11060 21065=
KUES 171145Z 06008KT 7SM OVC008 M01/M02 A3010=
KUNU 171155Z AUTO 08006KT 10SM OVC008 M01/M02 A3011 RMK AO2
     T10101025 11008 21022=
KVOK 171156Z AUTO 08004KT 10SM OVC008 M A3010 RMK AO2 SLPNO
     ALSTG ESTMD 58003 $=
SPECI KVOK 171145Z AUTO 09004KT 10SM OVC008 M A3010 RMK AO2
     SLPNO ALSTG ESTMD $=
KVOK 171145Z AUTO 09004KT 10SM OVC008 M A3010 RMK AO2 SLPNO
     ALSTG ESTMD $=
SPECI KVOK 171145Z AUTO 09004KT 10SM OVC008 M A3010 RMK AO2
     SLPNO ALSTG ESTMD $=
KVOK 171156Z AUTO 08004KT 10SM OVC008 M A3010 RMK AO2 SLPNO
     ALSTG ESTMD 58003 $=
METAR KVOK 171156Z AUTO 08004KT 10SM OVC008 M A3010 RMK AO2
     SLPNO ALSTG ESTMD 58003 $=
KY50 171156Z AUTO 06006KT 10SM OVC012 M04/M06 A3013 RMK AO2
     SLP229 6//// 7//// T10391056 11039 21044 58001=
KY51 171155Z AUTO 00000KT 2 1/2SM OVC003 M03/M03 A3005 RMK
     AO1 T10261026 11025 21031=
KDBQ 171153Z 05007KT 2 1/2SM BR OVC003 M01/M02 A3002 RMK AO2
     SLP178 T10111017 11011 21017 58005=
KRST 171154Z 08005KT 1/2SM R31/2600V3500FT FZFG VV002
     M04/M04 A3006 RMK AO2 SLP197 I1002 I6013 T10391044
     11039 21061 55002=
KMSP 171153Z 08004KT 6SM BR OVC006 M06/M07 A3010 RMK AO2
     SLP207 T10611067 11044 21078 55003=
KRFD 171154Z 05006KT 4SM BR OVC007 01/M01 A3007 RMK AO2
     SLP191 I6000 T00061011 10011 21028 56008 $=
KORD 171151Z 02006KT 4SM BR BKN210 02/00 A3006 RMK AO2
     SLP185 I6000 T00170000 10017 21017 51003=
KORD 171145Z 02007KT 4SM BR BKN210 01/00 A3006 RMK AO2=